createdAt,value
2019-03-30T08:57:45.073Z,3.00
2019-03-30T08:58:44.966Z,3.50
2019-03-30T08:59:44.959Z,3.10
2019-03-30T09:00:44.959Z,2.90
2019-03-30T09:01:44.933Z,2.80
2019-03-30T09:02:44.924Z,3.30
2019-03-30T09:03:44.934Z,3.50
2019-03-30T09:04:44.905Z,2.90
2019-03-30T09:05:44.925Z,3.40
2019-03-30T09:06:44.933Z,3.10
2019-03-30T09:07:44.901Z,3.00
2019-03-30T09:08:44.891Z,3.10
2019-03-30T09:09:44.895Z,3.60
2019-03-30T09:10:44.834Z,3.10
2019-03-30T09:11:44.831Z,3.30
2019-03-30T09:12:44.916Z,3.80
2019-03-30T09:13:44.834Z,3.00
2019-03-30T09:14:44.815Z,3.40
2019-03-30T09:15:44.802Z,2.90
2019-03-30T09:16:44.777Z,3.20
2019-03-30T09:17:44.780Z,3.20
2019-03-30T09:18:44.748Z,3.20
2019-03-30T09:19:44.745Z,2.70
2019-03-30T09:20:44.749Z,2.80
2019-03-30T09:21:44.878Z,2.80
2019-03-30T09:22:44.703Z,3.60
2019-03-30T09:23:44.747Z,3.40
2019-03-30T09:24:44.713Z,3.50
2019-03-30T09:25:44.677Z,3.50
2019-03-30T09:26:44.674Z,3.10
2019-03-30T09:27:44.758Z,3.40
2019-03-30T09:28:44.649Z,2.90
2019-03-30T09:29:44.640Z,3.30
2019-03-30T09:30:44.625Z,2.90
2019-03-30T09:31:44.617Z,3.10
2019-03-30T09:32:45.205Z,2.50
2019-03-30T09:33:44.647Z,2.70
2019-03-30T09:34:44.713Z,2.20
2019-03-30T09:35:44.572Z,3.00
2019-03-30T09:36:44.729Z,2.80
2019-03-30T09:37:44.547Z,2.40
2019-03-30T09:38:44.531Z,2.60
2019-03-30T09:39:44.541Z,3.10
2019-03-30T09:40:44.521Z,2.90
2019-03-30T09:41:44.502Z,2.50
2019-03-30T09:42:44.492Z,2.80
2019-03-30T09:43:44.479Z,2.60
2019-03-30T09:44:44.529Z,2.60
2019-03-30T09:45:44.469Z,3.00
2019-03-30T09:46:44.448Z,2.60
2019-03-30T09:47:44.450Z,3.40
2019-03-30T09:48:44.454Z,3.10
2019-03-30T09:49:44.437Z,2.90
2019-03-30T09:50:44.399Z,2.80
2019-03-30T09:51:44.585Z,2.70
2019-03-30T09:52:44.377Z,2.70
2019-03-30T09:53:44.717Z,2.90
2019-03-30T09:54:44.352Z,3.00
2019-03-30T09:55:44.352Z,2.60
2019-03-30T09:56:44.344Z,2.50
2019-03-30T09:57:44.447Z,3.10
2019-03-30T09:58:44.317Z,2.40
2019-03-30T09:59:44.300Z,3.00
2019-03-30T10:00:44.295Z,2.70
2019-03-30T10:01:44.282Z,2.40
2019-03-30T10:02:44.266Z,2.60
2019-03-30T10:03:44.312Z,2.60
2019-03-30T10:04:44.246Z,3.20
2019-03-30T10:05:44.237Z,2.30
2019-03-30T10:06:44.228Z,2.80
2019-03-30T10:07:44.212Z,2.20
2019-03-30T10:08:44.201Z,2.40
2019-03-30T10:09:47.157Z,2.10
2019-03-30T10:10:44.181Z,2.30
2019-03-30T10:11:44.167Z,2.80
2019-03-30T10:12:44.157Z,2.60
2019-03-30T10:13:44.148Z,3.10
2019-03-30T10:14:44.138Z,2.30
2019-03-30T10:15:44.145Z,2.90
2019-03-30T10:16:44.135Z,2.60
2019-03-30T10:17:44.104Z,2.40
2019-03-30T10:18:44.100Z,2.70
2019-03-30T10:19:44.087Z,2.30
2019-03-30T10:20:44.075Z,2.70
2019-03-30T10:21:44.076Z,2.30
2019-03-30T10:22:44.089Z,2.30
2019-03-30T10:23:44.042Z,2.30
2019-03-30T10:24:44.037Z,3.00
2019-03-30T10:25:44.167Z,2.80
2019-03-30T10:26:44.012Z,2.30
2019-03-30T10:27:44.017Z,2.20
2019-03-30T10:28:46.946Z,2.00
2019-03-30T10:29:44.017Z,2.70
2019-03-30T10:30:44.000Z,2.30
2019-03-30T10:31:43.962Z,1.80
2019-03-30T10:32:43.950Z,2.00
2019-03-30T10:33:43.998Z,1.80
2019-03-30T10:34:43.932Z,2.30
2019-03-30T10:35:43.923Z,2.30
2019-03-30T10:36:43.945Z,2.30
2019-03-30T10:37:43.899Z,2.30
2019-03-30T10:38:43.880Z,2.40
2019-03-30T10:39:43.889Z,2.50
2019-03-30T10:40:43.862Z,2.30
2019-03-30T10:41:43.850Z,2.30
2019-03-30T10:42:43.841Z,2.10
2019-03-30T10:43:43.890Z,2.00
2019-03-30T10:44:43.845Z,1.60
2019-03-30T10:45:43.838Z,1.80
2019-03-30T10:46:43.796Z,1.50
2019-03-30T10:47:43.886Z,2.00
2019-03-30T10:48:43.783Z,1.20
2019-03-30T10:49:43.765Z,1.80
2019-03-30T10:50:43.763Z,1.70
2019-03-30T10:51:43.846Z,1.60
2019-03-30T10:52:43.739Z,1.90
2019-03-30T10:53:43.731Z,1.90
2019-03-30T10:54:52.665Z,2.00
2019-03-30T10:55:44.814Z,1.80
2019-03-30T10:56:43.692Z,1.80
2019-03-30T10:57:43.705Z,1.60
2019-03-30T10:58:43.668Z,1.60
2019-03-30T10:59:43.658Z,1.70
2019-03-30T11:00:43.642Z,2.10
2019-03-30T11:01:43.637Z,2.20
2019-03-30T11:02:43.622Z,2.20
2019-03-30T11:03:43.638Z,2.00
2019-03-30T11:04:43.603Z,1.60
2019-03-30T11:05:43.626Z,2.00
2019-03-30T11:06:43.664Z,2.20
2019-03-30T11:07:43.601Z,2.30
2019-03-30T11:08:43.597Z,2.00
2019-03-30T11:09:43.610Z,1.70
2019-03-30T11:10:43.544Z,1.70
2019-03-30T11:11:43.532Z,1.90
2019-03-30T11:12:43.532Z,2.20
2019-03-30T11:13:43.613Z,2.10
2019-03-30T11:14:43.499Z,1.40
2019-03-30T11:15:43.499Z,1.80
2019-03-30T11:16:43.489Z,2.40
2019-03-30T11:17:43.466Z,2.20
2019-03-30T11:18:43.463Z,2.00
2019-03-30T11:19:43.574Z,2.20
2019-03-30T11:20:43.441Z,1.90
2019-03-30T11:21:43.479Z,1.70
2019-03-30T11:22:43.412Z,2.00
2019-03-30T11:23:43.409Z,2.00
2019-03-30T11:24:43.396Z,1.90
2019-03-30T11:25:43.501Z,1.90
2019-03-30T11:26:43.364Z,2.00
2019-03-30T11:27:43.383Z,2.10
2019-03-30T11:28:43.350Z,2.90
2019-03-30T11:29:43.416Z,2.50
2019-03-30T11:30:43.325Z,2.20
2019-03-30T11:31:43.337Z,2.20
2019-03-30T11:32:43.303Z,1.70
2019-03-30T11:33:43.305Z,2.20
2019-03-30T11:34:43.278Z,2.10
2019-03-30T11:35:43.286Z,1.70
2019-03-30T11:36:43.283Z,2.50
2019-03-30T11:37:43.286Z,2.40
2019-03-30T11:38:43.245Z,2.40
2019-03-30T11:39:43.252Z,2.60
2019-03-30T11:40:43.227Z,2.50
2019-03-30T11:41:43.203Z,2.40
2019-03-30T11:42:43.196Z,2.40
2019-03-30T11:43:43.272Z,2.50
2019-03-30T11:44:43.172Z,2.20
2019-03-30T11:45:43.173Z,2.80
2019-03-30T11:46:43.155Z,2.50
2019-03-30T11:47:43.143Z,2.60
2019-03-30T11:48:43.123Z,1.90
2019-03-30T11:49:43.148Z,2.10
2019-03-30T11:50:43.149Z,2.30
2019-03-30T11:51:43.142Z,2.50
2019-03-30T11:52:43.085Z,1.70
2019-03-30T11:53:43.083Z,2.70
2019-03-30T11:54:43.066Z,2.10
2019-03-30T11:55:43.052Z,2.40
2019-03-30T11:56:43.075Z,2.40
2019-03-30T11:57:43.051Z,2.00
2019-03-30T11:58:43.020Z,1.70
2019-03-30T11:59:43.018Z,2.20
2019-03-30T12:00:43.057Z,2.30
2019-03-30T12:01:43.009Z,2.40
2019-03-30T12:02:42.986Z,1.90
2019-03-30T12:03:42.990Z,2.20
2019-03-30T12:04:42.960Z,2.40
2019-03-30T12:05:42.946Z,2.60
2019-03-30T12:06:42.933Z,1.70
2019-03-30T12:07:42.942Z,2.40
2019-03-30T12:08:42.915Z,2.10
2019-03-30T12:09:42.952Z,1.90
2019-03-30T12:10:42.908Z,1.70
2019-03-30T12:11:42.897Z,1.90
2019-03-30T12:12:42.890Z,1.80
2019-03-30T12:13:42.913Z,1.40
2019-03-30T12:14:42.865Z,1.70
2019-03-30T12:15:42.990Z,1.50
2019-03-30T12:16:42.827Z,1.60
2019-03-30T12:17:42.859Z,1.90
2019-03-30T12:18:42.814Z,1.70
2019-03-30T12:19:42.808Z,1.30
2019-03-30T12:20:42.789Z,1.20
2019-03-30T12:21:42.792Z,1.40
2019-03-30T12:22:42.759Z,1.60
2019-03-30T12:23:42.961Z,1.70
2019-03-30T12:24:42.751Z,1.50
2019-03-30T12:25:42.725Z,2.10
2019-03-30T12:26:42.718Z,1.50
2019-03-30T12:27:42.747Z,1.50
2019-03-30T12:28:42.719Z,1.70
2019-03-30T12:29:44.543Z,1.90
2019-03-30T12:30:42.687Z,2.30
2019-03-30T12:31:42.664Z,2.10
2019-03-30T12:32:42.715Z,1.80
2019-03-30T12:33:42.670Z,1.80
2019-03-30T12:34:42.653Z,2.10
2019-03-30T12:35:42.652Z,1.40
2019-03-30T12:36:42.613Z,1.70
2019-03-30T12:37:42.613Z,2.00
2019-03-30T12:38:42.604Z,1.80
2019-03-30T12:39:42.600Z,1.90
2019-03-30T12:40:42.577Z,2.10
2019-03-30T12:41:42.572Z,1.70
2019-03-30T12:42:42.551Z,1.50
2019-03-30T12:43:42.559Z,1.50
2019-03-30T12:44:42.530Z,1.40
2019-03-30T12:45:42.534Z,1.00
2019-03-30T12:46:42.506Z,1.40
2019-03-30T12:47:42.510Z,1.00
2019-03-30T12:48:42.508Z,1.30
2019-03-30T12:49:45.100Z,1.50
2019-03-30T12:50:42.470Z,1.40
2019-03-30T12:51:42.497Z,1.40
2019-03-30T12:52:42.442Z,1.60
2019-03-30T12:53:49.990Z,1.40
2019-03-30T12:54:43.425Z,1.10
2019-03-30T12:55:49.178Z,1.40
2019-03-30T12:56:43.424Z,1.50
2019-03-30T12:57:42.386Z,1.70
2019-03-30T12:58:42.383Z,1.90
2019-03-30T12:59:42.380Z,1.50
2019-03-30T13:00:42.377Z,1.50
2019-03-30T13:01:42.347Z,1.30
2019-03-30T13:02:42.380Z,1.50
2019-03-30T13:03:42.340Z,1.60
2019-03-30T13:04:42.317Z,1.80
2019-03-30T13:05:42.307Z,1.30
2019-03-30T13:06:42.310Z,1.40
2019-03-30T13:07:42.288Z,1.60
2019-03-30T13:08:42.295Z,1.80
2019-03-30T13:09:42.269Z,1.50
2019-03-30T13:10:45.317Z,1.70
2019-03-30T13:11:42.238Z,1.50
2019-03-30T13:12:42.233Z,1.60
2019-03-30T13:13:42.224Z,1.60
2019-03-30T13:14:42.221Z,1.30
2019-03-30T13:15:42.196Z,1.40
2019-03-30T13:16:42.201Z,1.20
2019-03-30T13:17:42.183Z,1.60
2019-03-30T13:18:42.181Z,1.80
2019-03-30T13:19:42.157Z,1.60
2019-03-30T13:20:42.157Z,1.50
2019-03-30T13:21:52.422Z,1.50
2019-03-30T13:22:43.130Z,1.70
2019-03-30T13:23:42.115Z,1.60
2019-03-30T13:24:42.102Z,2.10
2019-03-30T13:25:42.101Z,1.50
2019-03-30T13:26:42.111Z,1.50
2019-03-30T13:27:42.088Z,1.90
2019-03-30T13:28:42.058Z,1.30
2019-03-30T13:29:42.049Z,1.50
2019-03-30T13:30:42.032Z,1.80
2019-03-30T13:31:42.052Z,1.70
2019-03-30T13:32:42.045Z,1.40
2019-03-30T13:33:42.001Z,1.40
2019-03-30T13:34:41.991Z,1.70
2019-03-30T13:35:41.987Z,1.50
2019-03-30T13:36:42.056Z,1.60
2019-03-30T13:37:41.966Z,1.20
2019-03-30T13:38:41.984Z,1.20
2019-03-30T13:39:41.937Z,1.80
2019-03-30T13:40:41.931Z,1.10
2019-03-30T13:41:41.921Z,1.60
2019-03-30T13:42:41.902Z,1.50
2019-03-30T13:43:41.891Z,1.30
2019-03-30T13:44:42.058Z,1.20
2019-03-30T13:45:41.874Z,1.10
2019-03-30T13:46:41.867Z,1.40
2019-03-30T13:47:41.851Z,1.40
2019-03-30T13:48:41.841Z,1.60
2019-03-30T13:49:41.833Z,1.30
2019-03-30T13:50:41.831Z,1.50
2019-03-30T13:51:41.810Z,1.30
2019-03-30T13:52:41.793Z,1.80
2019-03-30T13:53:41.787Z,1.80
2019-03-30T13:54:41.786Z,1.90
2019-03-30T13:55:41.763Z,1.70
2019-03-30T13:56:41.765Z,1.20
2019-03-30T13:57:41.744Z,1.30
2019-03-30T13:58:41.730Z,1.80
2019-03-30T13:59:41.726Z,1.60
2019-03-30T14:00:41.786Z,1.90
2019-03-30T14:01:41.720Z,1.40
2019-03-30T14:02:44.089Z,2.10
2019-03-30T14:03:41.682Z,1.70
2019-03-30T14:04:41.669Z,1.80
2019-03-30T14:05:41.707Z,1.70
2019-03-30T14:06:41.659Z,2.00
2019-03-30T14:07:41.631Z,2.00
2019-03-30T14:08:41.640Z,1.70
2019-03-30T14:09:41.622Z,1.80
2019-03-30T14:10:41.616Z,1.80
2019-03-30T14:11:41.589Z,2.30
2019-03-30T14:12:41.615Z,1.40
2019-03-30T14:13:41.575Z,1.80
2019-03-30T14:14:41.605Z,1.50
2019-03-30T14:15:41.557Z,1.60
2019-03-30T14:16:41.534Z,2.20
2019-03-30T14:17:41.551Z,1.40
2019-03-30T14:18:41.539Z,1.50
2019-03-30T14:19:41.512Z,1.50
2019-03-30T14:20:41.510Z,1.60
2019-03-30T14:21:41.478Z,1.80
2019-03-30T14:22:41.470Z,2.00
2019-03-30T14:23:43.447Z,1.80
2019-03-30T14:24:41.452Z,2.00
2019-03-30T14:25:41.450Z,1.60
2019-03-30T14:26:41.446Z,1.70
2019-03-30T14:27:41.438Z,1.90
2019-03-30T14:28:41.427Z,1.80
2019-03-30T14:29:41.439Z,1.60
2019-03-30T14:30:41.391Z,1.90
2019-03-30T14:31:41.374Z,1.70
2019-03-30T14:32:41.372Z,1.20
2019-03-30T14:33:41.395Z,1.70
2019-03-30T14:34:41.377Z,2.00
2019-03-30T14:35:43.784Z,1.70
2019-03-30T14:36:41.423Z,1.70
2019-03-30T14:37:41.365Z,1.40
2019-03-30T14:38:41.371Z,1.50
2019-03-30T14:39:41.285Z,1.70
2019-03-30T14:40:41.278Z,1.70
2019-03-30T14:41:41.269Z,1.50
2019-03-30T14:42:41.246Z,2.10
2019-03-30T14:43:41.241Z,1.80
2019-03-30T14:44:41.239Z,2.00
2019-03-30T14:45:41.229Z,1.90
2019-03-30T14:46:41.207Z,1.60
2019-03-30T14:47:41.199Z,1.60
2019-03-30T14:48:41.290Z,1.50
2019-03-30T14:49:41.174Z,1.30
2019-03-30T14:50:41.183Z,1.60
2019-03-30T14:51:41.164Z,1.90
2019-03-30T14:52:41.284Z,1.90
2019-03-30T14:53:41.133Z,1.70
2019-03-30T14:54:52.031Z,2.10
2019-03-30T14:55:42.155Z,1.30
2019-03-30T14:56:45.761Z,1.70
2019-03-30T14:57:42.088Z,1.60
2019-03-30T14:58:41.159Z,1.20
2019-03-30T14:59:41.077Z,1.60
2019-03-30T15:00:41.199Z,1.80
2019-03-30T15:01:41.068Z,1.50
2019-03-30T15:02:41.051Z,1.80
2019-03-30T15:03:41.059Z,1.70
2019-03-30T15:04:41.030Z,2.00
2019-03-30T15:05:41.023Z,2.30
2019-03-30T15:06:41.014Z,1.80
2019-03-30T15:07:40.991Z,1.90
2019-03-30T15:08:40.974Z,2.00
2019-03-30T15:09:40.985Z,1.90
2019-03-30T15:10:40.998Z,1.70
2019-03-30T15:11:40.975Z,2.10
2019-03-30T15:12:40.939Z,1.70
2019-03-30T15:13:40.946Z,2.30
2019-03-30T15:14:40.913Z,1.80
2019-03-30T15:15:40.888Z,1.90
2019-03-30T15:16:40.876Z,1.80
2019-03-30T15:17:41.401Z,1.90
2019-03-30T15:18:40.857Z,2.00
2019-03-30T15:19:40.863Z,1.60
2019-03-30T15:20:40.844Z,2.30
2019-03-30T15:21:40.828Z,1.80
2019-03-30T15:22:40.830Z,1.60
2019-03-30T15:23:40.814Z,2.00
2019-03-30T15:24:40.794Z,1.90
2019-03-30T15:25:40.808Z,2.20
2019-03-30T15:26:40.773Z,2.30
2019-03-30T15:27:40.753Z,2.30
2019-03-30T15:28:42.789Z,2.20
2019-03-30T15:29:40.759Z,1.70
2019-03-30T15:30:40.730Z,2.30
2019-03-30T15:31:40.750Z,2.00
2019-03-30T15:32:40.708Z,2.00
2019-03-30T15:33:40.711Z,2.00
2019-03-30T15:34:40.689Z,2.00
2019-03-30T15:35:40.677Z,2.20
2019-03-30T15:36:41.228Z,2.00
2019-03-30T15:37:40.670Z,1.60
2019-03-30T15:38:40.634Z,1.90
2019-03-30T15:39:40.636Z,2.00
2019-03-30T15:40:40.612Z,1.50
2019-03-30T15:41:40.606Z,1.60
2019-03-30T15:42:40.816Z,1.80
2019-03-30T15:43:40.591Z,2.10
2019-03-30T15:44:40.683Z,1.70
2019-03-30T15:45:40.685Z,1.80
2019-03-30T15:46:40.546Z,1.90
2019-03-30T15:47:40.532Z,2.00
2019-03-30T15:48:40.523Z,2.00
2019-03-30T15:49:40.544Z,1.70
2019-03-30T15:50:40.501Z,2.20
2019-03-30T15:51:40.567Z,2.10
2019-03-30T15:52:40.484Z,2.40
2019-03-30T15:53:40.471Z,2.00
2019-03-30T15:54:40.490Z,1.80
2019-03-30T15:55:40.477Z,1.60
2019-03-30T15:56:40.435Z,1.80
2019-03-30T15:57:40.423Z,1.90
2019-03-30T15:58:40.414Z,1.70
2019-03-30T15:59:40.416Z,2.10
2019-03-30T16:00:40.404Z,1.90
2019-03-30T16:01:40.435Z,1.90
2019-03-30T16:02:40.378Z,1.70
2019-03-30T16:03:40.371Z,2.20
2019-03-30T16:04:40.365Z,1.90
2019-03-30T16:05:40.337Z,2.40
2019-03-30T16:06:40.342Z,1.80
2019-03-30T16:07:40.340Z,2.00
2019-03-30T16:08:40.374Z,2.10
2019-03-30T16:09:40.310Z,1.90
2019-03-30T16:10:40.282Z,2.50
2019-03-30T16:11:40.279Z,2.30
2019-03-30T16:12:40.263Z,1.80
2019-03-30T16:13:40.384Z,2.00
2019-03-30T16:14:40.240Z,2.30
2019-03-30T16:15:40.415Z,2.50
2019-03-30T16:16:40.858Z,2.40
2019-03-30T16:17:43.349Z,2.50
2019-03-30T16:18:41.495Z,2.90
2019-03-30T16:19:42.103Z,2.50
2019-03-30T16:20:41.607Z,2.10
2019-03-30T16:21:41.220Z,2.50
2019-03-30T16:22:40.770Z,2.20
2019-03-30T16:23:40.717Z,2.00
2019-03-30T16:24:41.157Z,2.20
2019-03-30T16:25:43.877Z,2.20
2019-03-30T16:26:42.477Z,2.00
2019-03-30T16:27:41.255Z,2.00
2019-03-30T16:28:41.103Z,2.40
2019-03-30T16:29:40.697Z,2.20
2019-03-30T16:30:41.687Z,1.90
2019-03-30T16:31:40.084Z,1.80
2019-03-30T16:32:40.046Z,2.50
2019-03-30T16:33:40.037Z,2.00
2019-03-30T16:34:40.037Z,1.90
2019-03-30T16:35:40.400Z,2.10
2019-03-30T16:36:40.001Z,1.80
2019-03-30T16:37:40.012Z,1.70
2019-03-30T16:38:39.980Z,2.00
2019-03-30T16:39:39.992Z,2.10
2019-03-30T16:40:39.957Z,1.90
2019-03-30T16:41:39.947Z,1.90
2019-03-30T16:42:39.982Z,4.30
2019-03-30T16:43:40.014Z,2.00
2019-03-30T16:44:40.435Z,2.90
2019-03-30T16:45:39.918Z,2.60
2019-03-30T16:46:39.910Z,2.00
2019-03-30T16:47:39.884Z,2.10
2019-03-30T16:48:39.883Z,2.80
2019-03-30T16:49:39.888Z,1.90
2019-03-30T16:50:39.852Z,2.20
2019-03-30T16:51:39.835Z,2.00
2019-03-30T16:52:41.154Z,2.30
2019-03-30T16:53:39.820Z,1.80
2019-03-30T16:54:39.807Z,2.10
2019-03-30T16:55:39.828Z,1.90
2019-03-30T16:56:39.782Z,2.20
2019-03-30T16:57:43.408Z,2.60
2019-03-30T16:58:39.768Z,1.80
2019-03-30T16:59:39.763Z,2.00
2019-03-30T17:00:55.401Z,2.20
2019-03-30T17:01:40.758Z,2.00
2019-03-30T17:02:39.720Z,2.20
2019-03-30T17:03:39.798Z,2.50
2019-03-30T17:04:39.701Z,2.10
2019-03-30T17:05:39.685Z,2.30
2019-03-30T17:06:39.685Z,1.70
2019-03-30T17:07:39.685Z,2.50
2019-03-30T17:08:39.650Z,1.90
2019-03-30T17:09:39.643Z,2.40
2019-03-30T17:10:40.382Z,2.30
2019-03-30T17:11:39.623Z,2.00
2019-03-30T17:12:39.610Z,2.40
2019-03-30T17:13:39.608Z,1.70
2019-03-30T17:14:39.585Z,2.30
2019-03-30T17:15:39.577Z,1.80
2019-03-30T17:16:39.582Z,2.70
2019-03-30T17:17:39.551Z,2.30
2019-03-30T17:18:39.541Z,2.40
2019-03-30T17:19:39.546Z,2.20
2019-03-30T17:20:39.516Z,2.10
2019-03-30T17:21:39.563Z,2.50
2019-03-30T17:22:39.524Z,1.90
2019-03-30T17:23:39.484Z,2.50
2019-03-30T17:24:39.474Z,1.80
2019-03-30T17:25:39.477Z,2.40
2019-03-30T17:26:39.462Z,1.90
2019-03-30T17:27:39.439Z,2.30
2019-03-30T17:28:39.469Z,2.30
2019-03-30T17:29:39.420Z,1.80
2019-03-30T17:30:39.410Z,2.30
2019-03-30T17:31:39.423Z,2.40
2019-03-30T17:32:39.417Z,2.20
2019-03-30T17:33:39.398Z,3.00
2019-03-30T17:34:39.368Z,2.10
2019-03-30T17:35:39.354Z,2.00
2019-03-30T17:36:39.364Z,2.00
2019-03-30T17:37:39.355Z,2.00
2019-03-30T17:38:39.319Z,1.60
2019-03-30T17:39:39.308Z,2.10
2019-03-30T17:40:39.327Z,2.10
2019-03-30T17:41:39.286Z,1.80
2019-03-30T17:42:39.385Z,2.30
2019-03-30T17:43:39.277Z,2.40
2019-03-30T17:44:39.257Z,2.00
2019-03-30T17:45:39.244Z,1.60
2019-03-30T17:46:39.232Z,1.80
2019-03-30T17:47:39.222Z,2.10
2019-03-30T17:48:39.255Z,1.90
2019-03-30T17:49:39.231Z,2.20
2019-03-30T17:50:39.187Z,1.80
2019-03-30T17:51:39.179Z,1.90
2019-03-30T17:52:46.212Z,1.60
2019-03-30T17:53:39.575Z,2.20
2019-03-30T17:54:39.919Z,1.90
2019-03-30T17:55:39.153Z,2.30
2019-03-30T17:56:39.124Z,1.60
2019-03-30T17:57:39.114Z,1.60
2019-03-30T17:58:39.105Z,2.00
2019-03-30T17:59:39.094Z,1.60
2019-03-30T18:00:39.084Z,1.90
2019-03-30T18:01:39.085Z,1.80
2019-03-30T18:02:39.063Z,1.60
2019-03-30T18:03:39.052Z,1.50
2019-03-30T18:04:39.212Z,1.80
2019-03-30T18:05:39.032Z,1.50
2019-03-30T18:06:39.015Z,1.80
2019-03-30T18:07:39.019Z,1.90
2019-03-30T18:08:38.992Z,1.50
2019-03-30T18:09:38.978Z,1.50
2019-03-30T18:10:38.972Z,1.90
2019-03-30T18:11:38.962Z,2.00
2019-03-30T18:12:38.947Z,1.90
2019-03-30T18:13:38.950Z,2.10
2019-03-30T18:14:38.924Z,2.70
2019-03-30T18:15:38.915Z,2.10
2019-03-30T18:16:38.902Z,1.90
2019-03-30T18:17:38.892Z,2.00
2019-03-30T18:18:38.896Z,2.50
2019-03-30T18:19:38.887Z,2.40
2019-03-30T18:20:38.973Z,2.40
2019-03-30T18:21:38.845Z,2.20
2019-03-30T18:22:38.863Z,2.30
2019-03-30T18:23:38.832Z,2.20
2019-03-30T18:24:38.820Z,2.10
2019-03-30T18:25:38.823Z,2.10
2019-03-30T18:26:38.797Z,2.20
2019-03-30T18:27:38.790Z,1.90
2019-03-30T18:28:38.774Z,2.20
2019-03-30T18:29:38.769Z,2.40
2019-03-30T18:30:38.757Z,2.40
2019-03-30T18:31:38.761Z,2.40
2019-03-30T18:32:38.732Z,1.70
2019-03-30T18:33:38.719Z,1.80
2019-03-30T18:34:38.708Z,2.30
2019-03-30T18:35:38.695Z,1.90
2019-03-30T18:36:38.698Z,2.00
2019-03-30T18:37:38.703Z,2.00
2019-03-30T18:38:38.664Z,2.10
2019-03-30T18:39:38.654Z,1.90
2019-03-30T18:40:38.652Z,1.60
2019-03-30T18:41:38.636Z,2.20
2019-03-30T18:42:38.622Z,1.60
2019-03-30T18:43:38.622Z,2.10
2019-03-30T18:44:38.601Z,2.10
2019-03-30T18:45:38.595Z,2.00
2019-03-30T18:46:38.576Z,2.40
2019-03-30T18:47:38.566Z,3.00
2019-03-30T18:48:38.553Z,1.90
2019-03-30T18:49:38.563Z,2.10
2019-03-30T18:50:38.538Z,2.10
2019-03-30T18:51:38.521Z,2.30
2019-03-30T18:52:38.512Z,2.10
2019-03-30T18:53:38.499Z,2.40
2019-03-30T18:54:38.560Z,2.50
2019-03-30T18:55:38.511Z,2.90
2019-03-30T18:56:38.463Z,3.20
2019-03-30T18:57:38.454Z,2.90
2019-03-30T18:58:41.815Z,2.20
2019-03-30T18:59:38.434Z,2.50
2019-03-30T19:00:38.428Z,2.50
2019-03-30T19:01:38.428Z,2.10
2019-03-30T19:02:38.404Z,2.40
2019-03-30T19:03:38.387Z,2.20
2019-03-30T19:04:38.378Z,2.40
2019-03-30T19:05:38.366Z,2.20
2019-03-30T19:06:38.353Z,1.80
2019-03-30T19:07:38.363Z,2.00
2019-03-30T19:08:38.331Z,2.20
2019-03-30T19:09:38.319Z,2.30
2019-03-30T19:10:38.313Z,2.70
2019-03-30T19:11:38.302Z,2.40
2019-03-30T19:12:38.288Z,2.40
2019-03-30T19:13:38.316Z,2.50
2019-03-30T19:14:38.300Z,2.10
2019-03-30T19:15:38.274Z,2.00
2019-03-30T19:16:38.254Z,2.30
2019-03-30T19:17:38.229Z,2.40
2019-03-30T19:18:38.226Z,2.30
2019-03-30T19:19:38.226Z,2.30
2019-03-30T19:20:38.194Z,2.40
2019-03-30T19:21:38.188Z,2.10
2019-03-30T19:22:38.175Z,2.10
2019-03-30T19:23:38.159Z,2.60
2019-03-30T19:24:38.152Z,2.30
2019-03-30T19:25:38.203Z,2.50
2019-03-30T19:26:38.135Z,2.50
2019-03-30T19:27:38.120Z,2.00
2019-03-30T19:28:38.111Z,2.70
2019-03-30T19:29:38.097Z,2.50
2019-03-30T19:30:38.088Z,2.50
2019-03-30T19:31:38.090Z,2.20
2019-03-30T19:32:38.070Z,2.30
2019-03-30T19:33:38.055Z,2.40
2019-03-30T19:34:38.051Z,2.10
2019-03-30T19:35:38.044Z,2.80
2019-03-30T19:36:38.024Z,2.60
2019-03-30T19:37:38.040Z,2.90
2019-03-30T19:38:38.001Z,2.70
2019-03-30T19:39:37.988Z,2.70
2019-03-30T19:40:37.978Z,2.80
2019-03-30T19:41:37.969Z,3.20
2019-03-30T19:42:37.960Z,2.80
2019-03-30T19:43:37.963Z,2.70
2019-03-30T19:44:37.937Z,3.20
2019-03-30T19:45:37.924Z,3.10
2019-03-30T19:46:37.919Z,3.10
2019-03-30T19:47:37.908Z,2.80
2019-03-30T19:48:37.893Z,2.70
2019-03-30T19:49:37.896Z,2.80
2019-03-30T19:50:37.870Z,2.50
2019-03-30T19:51:37.860Z,2.40
2019-03-30T19:52:40.245Z,3.20
2019-03-30T19:53:37.838Z,2.90
2019-03-30T19:54:37.831Z,3.40
2019-03-30T19:55:37.834Z,2.40
2019-03-30T19:56:37.812Z,2.50
2019-03-30T19:57:37.797Z,2.00
2019-03-30T19:58:37.783Z,3.40
2019-03-30T19:59:37.779Z,2.40
2019-03-30T20:00:38.921Z,2.20
2019-03-30T20:01:37.834Z,3.40
2019-03-30T20:02:37.747Z,2.80
2019-03-30T20:03:37.730Z,2.70
2019-03-30T20:04:37.721Z,2.70
2019-03-30T20:05:37.730Z,2.80
2019-03-30T20:06:37.699Z,2.30
2019-03-30T20:07:37.715Z,2.80
2019-03-30T20:08:37.685Z,2.60
2019-03-30T20:09:37.666Z,2.50
2019-03-30T20:10:37.660Z,2.90
2019-03-30T20:11:37.644Z,2.80
2019-03-30T20:12:37.634Z,2.40
2019-03-30T20:13:37.647Z,3.10
2019-03-30T20:14:37.605Z,3.10
2019-03-30T20:15:37.622Z,2.60
2019-03-30T20:16:37.587Z,2.20
2019-03-30T20:17:37.577Z,2.30
2019-03-30T20:18:37.577Z,2.60
2019-03-30T20:19:37.711Z,2.30
2019-03-30T20:20:37.552Z,3.10
2019-03-30T20:21:37.537Z,2.90
2019-03-30T20:22:37.529Z,3.20
2019-03-30T20:23:37.511Z,3.00
2019-03-30T20:24:37.503Z,3.50
2019-03-30T20:25:37.522Z,2.80
2019-03-30T20:26:37.479Z,3.10
2019-03-30T20:27:37.468Z,2.90
2019-03-30T20:28:37.457Z,2.70
2019-03-30T20:29:37.445Z,3.50
2019-03-30T20:30:37.440Z,2.90
2019-03-30T20:31:37.440Z,2.10
2019-03-30T20:32:37.417Z,3.00
2019-03-30T20:33:37.407Z,2.80
2019-03-30T20:34:37.392Z,3.10
2019-03-30T20:35:37.385Z,3.00
2019-03-30T20:36:37.380Z,2.70
2019-03-30T20:37:37.398Z,2.60
2019-03-30T20:38:37.370Z,3.40
2019-03-30T20:39:38.099Z,3.30
2019-03-30T20:40:37.334Z,2.90
2019-03-30T20:41:37.353Z,2.90
2019-03-30T20:42:37.302Z,3.00
2019-03-30T20:43:37.305Z,2.50
2019-03-30T20:44:37.276Z,2.40
2019-03-30T20:45:37.267Z,2.90
2019-03-30T20:46:37.260Z,3.30
2019-03-30T20:47:37.254Z,2.50
2019-03-30T20:48:37.238Z,2.70
2019-03-30T20:49:37.244Z,2.20
2019-03-30T20:50:37.215Z,3.10
2019-03-30T20:51:37.207Z,2.50
2019-03-30T20:52:37.194Z,2.90
2019-03-30T20:53:37.188Z,3.20
2019-03-30T20:54:37.174Z,2.90
2019-03-30T20:55:37.225Z,3.00
2019-03-30T20:56:37.165Z,2.30
2019-03-30T20:57:37.142Z,2.70
2019-03-30T20:58:37.130Z,2.70
2019-03-30T20:59:40.251Z,2.90
2019-03-30T21:00:37.107Z,2.90
2019-03-30T21:01:38.483Z,2.80
2019-03-30T21:02:37.087Z,2.60
2019-03-30T21:03:37.074Z,3.10
2019-03-30T21:04:37.066Z,3.20
2019-03-30T21:05:37.052Z,2.60
2019-03-30T21:06:37.043Z,2.90
2019-03-30T21:07:37.057Z,2.80
2019-03-30T21:08:37.020Z,3.20
2019-03-30T21:09:37.011Z,3.10
2019-03-30T21:10:37.008Z,3.20
2019-03-30T21:11:37.021Z,2.90
2019-03-30T21:12:37.028Z,2.60
2019-03-30T21:13:37.001Z,3.10
2019-03-30T21:14:36.958Z,2.70
2019-03-30T21:15:36.945Z,2.60
2019-03-30T21:16:36.955Z,2.80
2019-03-30T21:17:36.936Z,2.40
2019-03-30T21:18:36.910Z,2.30
2019-03-30T21:19:36.918Z,2.90
2019-03-30T21:20:36.890Z,3.20
2019-03-30T21:21:36.881Z,3.70
2019-03-30T21:22:36.868Z,3.00
2019-03-30T21:23:36.859Z,2.70
2019-03-30T21:24:36.852Z,3.10
2019-03-30T21:25:36.865Z,2.90
2019-03-30T21:26:36.823Z,3.00
2019-03-30T21:27:36.819Z,3.00
2019-03-30T21:28:36.817Z,3.20
2019-03-30T21:29:36.802Z,3.30
2019-03-30T21:30:36.785Z,2.70
2019-03-30T21:31:36.788Z,3.30
2019-03-30T21:32:36.766Z,3.20
2019-03-30T21:33:36.750Z,2.90
2019-03-30T21:34:36.734Z,3.20
2019-03-30T21:35:36.730Z,3.00
2019-03-30T21:36:36.718Z,3.30
2019-03-30T21:37:36.721Z,2.50
2019-03-30T21:38:36.724Z,2.70
2019-03-30T21:39:36.689Z,2.60
2019-03-30T21:40:36.683Z,2.70
2019-03-30T21:41:36.664Z,3.00
2019-03-30T21:42:36.651Z,2.70
2019-03-30T21:43:36.658Z,3.40
2019-03-30T21:44:36.631Z,2.80
2019-03-30T21:45:36.619Z,3.00
2019-03-30T21:46:36.616Z,3.40
2019-03-30T21:47:36.600Z,3.00
2019-03-30T21:48:36.587Z,2.50
2019-03-30T21:49:36.596Z,2.80
2019-03-30T21:50:36.567Z,2.90
2019-03-30T21:51:37.188Z,2.40
2019-03-30T21:52:36.554Z,2.60
2019-03-30T21:53:36.532Z,2.10
2019-03-30T21:54:36.522Z,2.90
2019-03-30T21:55:36.531Z,2.60
2019-03-30T21:56:36.496Z,2.60
2019-03-30T21:57:36.496Z,2.80
2019-03-30T21:58:36.475Z,3.10
2019-03-30T21:59:36.474Z,3.40
2019-03-30T22:00:36.459Z,3.70
2019-03-30T22:01:36.458Z,2.40
2019-03-30T22:02:36.441Z,3.10
2019-03-30T22:03:36.422Z,3.30
2019-03-30T22:04:36.407Z,2.70
2019-03-30T22:05:36.398Z,3.20
2019-03-30T22:06:36.393Z,2.70
2019-03-30T22:07:36.405Z,2.90
2019-03-30T22:08:36.367Z,3.30
2019-03-30T22:09:36.356Z,3.10
2019-03-30T22:10:36.351Z,2.50
2019-03-30T22:11:36.341Z,3.30
2019-03-30T22:12:36.326Z,2.70
2019-03-30T22:13:36.340Z,3.10
2019-03-30T22:14:36.329Z,3.20
2019-03-30T22:15:36.293Z,2.90